createdAt,value
2022-09-13T00:00:50.666Z,52.73
2022-09-13T00:03:19.956Z,53.09
2022-09-13T00:05:48.760Z,52.92
2022-09-13T00:08:18.103Z,53.08
2022-09-13T00:10:47.417Z,53.11
2022-09-13T00:13:18.004Z,53.03
2022-09-13T00:15:48.775Z,53.37
2022-09-13T00:18:18.024Z,52.99
2022-09-13T00:20:46.333Z,53.15
2022-09-13T00:23:14.580Z,53.40
2022-09-13T00:25:42.478Z,53.49
2022-09-13T00:28:10.624Z,53.55
2022-09-13T00:30:39.894Z,53.52
2022-09-13T00:33:07.817Z,53.34
2022-09-13T00:35:35.967Z,53.24
2022-09-13T00:38:03.842Z,53.32
2022-09-13T00:40:31.754Z,53.52
2022-09-13T00:42:59.902Z,53.52
2022-09-13T00:45:28.012Z,53.48
2022-09-13T00:48:02.066Z,53.42
2022-09-13T00:50:34.352Z,54.04
2022-09-13T00:53:06.547Z,53.82
2022-09-13T00:55:41.197Z,53.71
2022-09-13T00:58:13.680Z,54.13
2022-09-13T01:00:42.034Z,53.85
2022-09-13T01:03:15.907Z,53.76
2022-09-13T01:05:48.910Z,53.98
2022-09-13T01:08:22.834Z,53.89
2022-09-13T01:10:53.266Z,53.89
2022-09-13T01:13:26.741Z,54.19
2022-09-13T01:15:55.148Z,54.01
2022-09-13T01:18:24.843Z,54.15
2022-09-13T01:21:26.332Z,54.24
2022-09-13T01:24:30.448Z,56.07
2022-09-13T01:27:17.339Z,56.07
2022-09-13T01:30:10.916Z,56.00
2022-09-13T01:32:54.224Z,56.39
2022-09-13T01:35:29.975Z,55.11
2022-09-13T01:38:07.363Z,54.90
2022-09-13T01:40:52.425Z,54.70
2022-09-13T01:43:31.419Z,55.66
2022-09-13T01:46:06.334Z,54.76
2022-09-13T01:48:46.993Z,54.98
2022-09-13T01:51:22.489Z,55.22
2022-09-13T01:53:59.023Z,55.03
2022-09-13T01:56:34.642Z,55.33
2022-09-13T01:59:07.547Z,55.65
2022-09-13T02:01:43.124Z,56.05
2022-09-13T02:04:14.911Z,56.83
2022-09-13T02:06:46.740Z,55.71
2022-09-13T02:09:21.282Z,55.67
2022-09-13T02:11:53.518Z,55.79
2022-09-13T02:14:25.843Z,55.77
2022-09-13T02:17:02.344Z,55.98
2022-09-13T02:19:36.727Z,56.36
2022-09-13T02:22:07.659Z,56.83
2022-09-13T02:24:40.506Z,56.24
2022-09-13T02:27:13.248Z,56.57
2022-09-13T02:29:45.375Z,56.25
2022-09-13T02:32:19.118Z,55.97
2022-09-13T02:34:52.492Z,56.37
2022-09-13T02:37:21.286Z,56.17
2022-09-13T02:39:55.403Z,56.26
2022-09-13T02:42:29.814Z,56.41
2022-09-13T02:44:59.765Z,55.88
2022-09-13T02:47:40.635Z,55.90
2022-09-13T02:50:20.865Z,56.59
2022-09-13T02:52:59.819Z,56.44
2022-09-13T02:55:34.320Z,56.02
2022-09-13T02:58:08.117Z,56.13
2022-09-13T03:00:36.937Z,55.88
2022-09-13T03:03:09.864Z,56.00
2022-09-13T03:05:38.127Z,55.88
2022-09-13T03:08:10.516Z,55.82
2022-09-13T03:10:49.668Z,56.01
2022-09-13T03:13:45.240Z,56.52
2022-09-13T03:16:27.836Z,56.69
2022-09-13T03:19:09.785Z,56.61
2022-09-13T03:21:54.293Z,57.06
2022-09-13T03:24:26.985Z,56.65
2022-09-13T03:27:10.415Z,56.14
2022-09-13T03:29:46.704Z,56.91
2022-09-13T03:32:25.589Z,56.82
2022-09-13T03:35:03.109Z,56.75
2022-09-13T03:37:37.235Z,56.88
2022-09-13T03:40:10.821Z,56.53
2022-09-13T03:42:45.300Z,56.38
2022-09-13T03:45:16.150Z,56.49
2022-09-13T03:47:47.804Z,56.35
2022-09-13T03:50:22.084Z,56.54
2022-09-13T03:52:56.095Z,57.36
2022-09-13T03:55:25.866Z,57.07
2022-09-13T03:57:54.356Z,56.77
2022-09-13T04:00:22.865Z,56.69
2022-09-13T04:02:51.065Z,56.66
2022-09-13T04:05:20.477Z,56.72
2022-09-13T04:07:48.378Z,56.70
2022-09-13T04:10:16.668Z,56.82
2022-09-13T04:12:44.467Z,56.66
2022-09-13T04:15:12.379Z,56.93
2022-09-13T04:17:40.452Z,57.49
2022-09-13T04:20:08.988Z,57.13
2022-09-13T04:22:38.173Z,56.86
2022-09-13T04:25:07.678Z,56.94
2022-09-13T04:27:35.878Z,56.88
2022-09-13T04:30:04.174Z,56.96
2022-09-13T04:32:32.395Z,57.16
2022-09-13T04:35:00.254Z,57.24
2022-09-13T04:37:28.136Z,57.01
2022-09-13T04:39:58.741Z,57.44
2022-09-13T04:42:26.624Z,58.01
2022-09-13T04:44:55.089Z,57.83
2022-09-13T04:47:23.301Z,58.00
2022-09-13T04:49:51.183Z,57.83
2022-09-13T04:52:19.048Z,57.84
2022-09-13T04:54:47.741Z,58.29
2022-09-13T04:57:17.794Z,58.10
2022-09-13T04:59:45.627Z,58.17
2022-09-13T05:02:13.734Z,57.38
2022-09-13T05:04:41.662Z,57.34
2022-09-13T05:07:09.591Z,57.20
2022-09-13T05:09:37.730Z,56.93
2022-09-13T05:12:08.787Z,57.00
2022-09-13T05:14:38.115Z,57.21
2022-09-13T05:17:06.613Z,57.49
2022-09-13T05:19:34.951Z,57.53
2022-09-13T05:22:02.876Z,57.43
2022-09-13T05:24:31.141Z,57.42
2022-09-13T05:26:58.975Z,57.58
2022-09-13T05:29:26.859Z,57.59
2022-09-13T05:31:56.242Z,57.40
2022-09-13T05:34:24.291Z,57.48
2022-09-13T05:36:54.380Z,57.27
2022-09-13T05:39:43.624Z,57.32
2022-09-13T05:42:10.710Z,57.50
2022-09-13T05:44:38.898Z,57.20
2022-09-13T05:47:08.214Z,57.27
2022-09-13T05:49:49.803Z,57.23
2022-09-13T05:52:24.146Z,56.94
2022-09-13T05:54:52.241Z,57.12
2022-09-13T05:57:20.109Z,56.96
2022-09-13T05:59:48.506Z,57.52
2022-09-13T06:02:17.692Z,58.24
2022-09-13T06:04:45.830Z,57.85
2022-09-13T06:07:13.788Z,57.75
2022-09-13T06:09:41.655Z,57.85
2022-09-13T06:12:09.699Z,58.03
2022-09-13T06:14:37.599Z,58.11
2022-09-13T06:17:05.615Z,57.91
2022-09-13T06:19:35.236Z,58.02
2022-09-13T06:22:03.098Z,57.98
2022-09-13T06:24:31.011Z,57.74
2022-09-13T06:26:59.540Z,57.67
2022-09-13T06:29:27.399Z,57.63
2022-09-13T06:31:55.328Z,57.82
2022-09-13T06:34:25.146Z,57.80
2022-09-13T06:36:57.293Z,57.40
2022-09-13T06:39:25.477Z,58.00
2022-09-13T06:41:53.451Z,58.01
2022-09-13T06:44:25.905Z,57.92
2022-09-13T06:46:54.001Z,57.72
2022-09-13T06:49:21.805Z,58.07
2022-09-13T06:51:49.740Z,57.88
2022-09-13T06:54:19.390Z,57.92
2022-09-13T06:56:47.430Z,57.79
2022-09-13T06:59:15.479Z,57.75
2022-09-13T07:01:44.776Z,57.47
2022-09-13T07:04:14.265Z,57.52
2022-09-13T07:06:44.048Z,57.65
2022-09-13T07:09:14.398Z,57.84
2022-09-13T07:11:43.885Z,57.52
2022-09-13T07:14:14.739Z,57.98
2022-09-13T07:16:43.063Z,58.04
2022-09-13T07:19:15.873Z,57.88
2022-09-13T07:21:44.723Z,58.26
2022-09-13T07:24:13.367Z,58.19
2022-09-13T07:26:42.550Z,57.86
2022-09-13T07:29:13.582Z,58.02
2022-09-13T07:31:43.137Z,58.29
2022-09-13T07:34:14.919Z,58.21
2022-09-13T07:36:43.386Z,58.55
2022-09-13T07:39:15.677Z,58.06
2022-09-13T07:41:48.196Z,58.06
2022-09-13T07:44:16.584Z,58.11
2022-09-13T07:46:44.476Z,57.99
2022-09-13T07:49:14.028Z,57.87
2022-09-13T07:51:44.032Z,57.78
2022-09-13T07:54:13.981Z,57.51
2022-09-13T07:56:42.736Z,57.47
2022-09-13T07:59:15.049Z,57.42
2022-09-13T08:01:45.099Z,56.82
2022-09-13T08:04:17.260Z,56.97
2022-09-13T08:06:46.475Z,56.89
2022-09-13T08:09:15.971Z,56.70
2022-09-13T08:11:45.621Z,56.63
2022-09-13T08:14:16.620Z,56.46
2022-09-13T08:16:44.921Z,56.27
2022-09-13T08:19:15.232Z,56.11
2022-09-13T08:21:44.004Z,55.87
2022-09-13T08:24:15.928Z,55.85
2022-09-13T08:26:44.249Z,55.04
2022-09-13T08:29:13.349Z,55.45
2022-09-13T08:31:43.563Z,55.24
2022-09-13T08:34:12.596Z,54.94
2022-09-13T08:36:41.732Z,54.96
2022-09-13T08:39:12.706Z,54.87
2022-09-13T08:42:10.434Z,54.80
2022-09-13T08:44:46.225Z,53.79
2022-09-13T08:47:32.524Z,54.45
2022-09-13T08:50:07.511Z,53.06
2022-09-13T08:52:46.445Z,54.28
2022-09-13T08:55:26.047Z,53.81
2022-09-13T08:57:58.798Z,53.57
2022-09-13T09:00:32.639Z,53.54
2022-09-13T09:03:17.983Z,53.68
2022-09-13T09:05:48.994Z,52.79
2022-09-13T09:08:31.170Z,53.93
2022-09-13T09:11:03.441Z,53.16
2022-09-13T09:13:35.958Z,53.38
2022-09-13T09:16:11.814Z,52.91
2022-09-13T09:18:44.659Z,52.59
2022-09-13T09:21:17.436Z,51.94
2022-09-13T09:23:51.846Z,52.64
2022-09-13T09:26:21.979Z,52.00
2022-09-13T09:28:52.026Z,52.33
2022-09-13T09:31:32.325Z,52.55
2022-09-13T09:34:15.484Z,51.80
2022-09-13T09:36:48.279Z,51.44
2022-09-13T09:39:17.065Z,51.99
2022-09-13T09:41:45.807Z,52.08
2022-09-13T09:44:20.215Z,51.45
2022-09-13T09:46:51.747Z,50.04
2022-09-13T09:49:45.144Z,51.56
2022-09-13T09:52:18.638Z,51.24
2022-09-13T09:54:47.431Z,50.87
2022-09-13T09:57:15.927Z,51.08
2022-09-13T09:59:43.869Z,50.50
2022-09-13T10:02:18.562Z,50.24
2022-09-13T10:04:57.759Z,47.97
2022-09-13T10:07:33.289Z,45.46
2022-09-13T10:10:06.387Z,48.19
2022-09-13T10:12:37.083Z,49.00
2022-09-13T10:15:17.480Z,48.64
2022-09-13T10:18:03.096Z,48.49
2022-09-13T10:20:33.253Z,45.53
2022-09-13T10:23:12.626Z,48.49
2022-09-13T10:25:47.698Z,46.20
2022-09-13T10:28:19.841Z,47.86
2022-09-13T10:30:53.312Z,46.54
2022-09-13T10:33:27.747Z,47.59
2022-09-13T10:35:59.442Z,47.16
2022-09-13T10:38:32.699Z,46.47
2022-09-13T10:41:04.326Z,46.75
2022-09-13T10:43:33.570Z,47.11
2022-09-13T10:46:05.613Z,47.37
2022-09-13T10:48:46.472Z,46.52
2022-09-13T10:51:29.798Z,44.50
2022-09-13T10:54:10.521Z,42.85
2022-09-13T10:56:39.314Z,43.99
2022-09-13T10:59:21.921Z,46.67
2022-09-13T11:02:06.748Z,44.56
2022-09-13T11:05:10.410Z,44.99
2022-09-13T11:08:24.311Z,43.03
2022-09-13T11:11:02.704Z,42.25
2022-09-13T11:13:45.584Z,43.80
2022-09-13T11:16:29.850Z,43.38
2022-09-13T11:19:37.446Z,43.11
2022-09-13T11:22:22.891Z,42.15
2022-09-13T11:25:03.015Z,41.24
2022-09-13T11:27:38.691Z,42.39
2022-09-13T11:30:13.652Z,43.44
2022-09-13T11:32:57.800Z,43.42
2022-09-13T11:35:37.683Z,42.24
2022-09-13T11:38:20.982Z,41.10
2022-09-13T11:40:59.865Z,40.32
2022-09-13T11:43:47.361Z,41.69
2022-09-13T11:46:24.743Z,40.24
2022-09-13T11:49:22.963Z,41.79
2022-09-13T11:52:03.012Z,38.04
2022-09-13T11:54:47.883Z,41.41
2022-09-13T11:57:22.677Z,40.68
2022-09-13T11:59:55.012Z,41.95
2022-09-13T12:02:29.530Z,42.05
2022-09-13T12:05:21.466Z,40.03
2022-09-13T12:07:54.894Z,42.09
2022-09-13T12:10:26.170Z,42.59
2022-09-13T12:12:58.219Z,42.60
2022-09-13T12:15:35.256Z,41.85
2022-09-13T12:18:07.822Z,40.78
2022-09-13T12:20:39.374Z,41.64
2022-09-13T12:23:15.924Z,41.06
2022-09-13T12:25:52.154Z,38.94
2022-09-13T12:28:27.376Z,40.46
2022-09-13T12:31:00.416Z,40.46
2022-09-13T12:33:28.636Z,41.12
2022-09-13T12:36:33.429Z,42.05
2022-09-13T12:39:24.752Z,37.53
2022-09-13T12:42:19.974Z,39.52
2022-09-13T12:45:06.932Z,39.76
2022-09-13T12:47:57.099Z,39.72
2022-09-13T12:50:50.618Z,39.52
2022-09-13T12:53:45.178Z,39.38
2022-09-13T12:56:29.591Z,37.65
2022-09-13T12:59:26.421Z,37.85
2022-09-13T13:01:57.263Z,37.77
2022-09-13T13:04:29.943Z,41.26
2022-09-13T13:07:01.220Z,40.89
2022-09-13T13:09:41.069Z,41.47
2022-09-13T13:12:10.525Z,39.92
2022-09-13T13:14:55.643Z,41.43
2022-09-13T13:17:53.059Z,38.78
2022-09-13T13:20:41.102Z,37.49
2022-09-13T13:23:21.879Z,38.36
2022-09-13T13:26:02.654Z,38.25
2022-09-13T13:29:06.391Z,38.49
2022-09-13T13:31:38.332Z,36.32
2022-09-13T13:34:29.962Z,39.00
2022-09-13T13:37:02.238Z,35.86
2022-09-13T13:39:39.794Z,39.06
2022-09-13T13:42:25.392Z,37.06
2022-09-13T13:45:16.846Z,36.15
2022-09-13T13:48:15.262Z,36.40
2022-09-13T13:51:15.256Z,36.72
2022-09-13T13:53:47.374Z,35.59
2022-09-13T13:56:30.656Z,39.34
2022-09-13T13:59:05.520Z,37.47
2022-09-13T14:01:36.998Z,38.92
2022-09-13T14:04:38.054Z,39.03
2022-09-13T14:07:20.298Z,37.02
2022-09-13T14:09:58.676Z,38.10
2022-09-13T14:12:41.452Z,38.47
2022-09-13T14:15:35.187Z,38.34
2022-09-13T14:18:32.451Z,38.13
2022-09-13T14:21:05.746Z,37.86
2022-09-13T14:23:35.310Z,39.78
2022-09-13T14:26:06.968Z,40.60
2022-09-13T14:28:35.511Z,40.92
2022-09-13T14:31:04.087Z,40.91
2022-09-13T14:33:36.447Z,41.00
2022-09-13T14:36:08.028Z,40.72
2022-09-13T14:38:37.566Z,40.94
2022-09-13T14:41:15.644Z,41.41
2022-09-13T14:43:44.588Z,40.76
2022-09-13T14:46:18.349Z,41.75
2022-09-13T14:48:51.500Z,41.51
2022-09-13T14:51:25.936Z,41.62
2022-09-13T14:54:00.443Z,41.48
2022-09-13T14:56:39.080Z,41.64
2022-09-13T14:59:15.387Z,40.53
2022-09-13T15:01:43.485Z,41.12
2022-09-13T15:04:11.605Z,41.68
2022-09-13T15:06:42.564Z,41.70
2022-09-13T15:09:29.271Z,41.67
2022-09-13T15:11:59.527Z,41.18
2022-09-13T15:14:31.168Z,41.91
2022-09-13T15:17:01.991Z,42.19
2022-09-13T15:19:32.863Z,42.21
2022-09-13T15:22:15.274Z,42.31
2022-09-13T15:24:48.077Z,42.04
2022-09-13T15:27:27.151Z,42.62
2022-09-13T15:29:57.789Z,42.64
2022-09-13T15:32:32.692Z,42.71
2022-09-13T15:35:02.783Z,42.92
2022-09-13T15:37:34.394Z,42.87
2022-09-13T15:40:20.191Z,42.94
2022-09-13T15:42:49.870Z,43.06
2022-09-13T15:45:19.140Z,42.81
2022-09-13T15:47:48.172Z,42.65
2022-09-13T15:50:28.299Z,42.63
2022-09-13T15:52:56.813Z,42.72
2022-09-13T15:55:27.233Z,42.86
2022-09-13T15:57:55.575Z,42.95
2022-09-13T16:00:26.227Z,43.03
2022-09-13T16:02:54.696Z,43.18
2022-09-13T16:05:22.744Z,43.19
2022-09-13T16:07:50.686Z,43.37
2022-09-13T16:10:22.211Z,43.45
2022-09-13T16:12:51.507Z,43.59
2022-09-13T16:15:19.758Z,43.65
2022-09-13T16:17:47.676Z,43.76
2022-09-13T16:20:17.009Z,43.94
2022-09-13T16:22:45.012Z,43.90
2022-09-13T16:25:14.034Z,43.79
2022-09-13T16:27:42.742Z,43.74
2022-09-13T16:30:15.052Z,43.79
2022-09-13T16:32:43.793Z,44.00
2022-09-13T16:35:13.021Z,43.88
2022-09-13T16:37:41.410Z,44.14
2022-09-13T16:40:11.032Z,44.02
2022-09-13T16:42:39.275Z,44.14
2022-09-13T16:45:08.121Z,44.18
2022-09-13T16:47:37.757Z,44.40
2022-09-13T16:50:07.388Z,44.24
2022-09-13T16:52:36.126Z,44.38
2022-09-13T16:55:05.036Z,44.38
2022-09-13T16:57:32.971Z,44.47
2022-09-13T17:00:03.264Z,44.49
2022-09-13T17:02:31.767Z,44.56
2022-09-13T17:05:01.303Z,44.66
2022-09-13T17:07:29.171Z,44.85
2022-09-13T17:09:57.636Z,45.44
2022-09-13T17:12:25.518Z,45.39
2022-09-13T17:14:54.861Z,45.27
2022-09-13T17:17:23.012Z,45.26
2022-09-13T17:19:50.941Z,45.62
2022-09-13T17:22:20.145Z,45.47
2022-09-13T17:24:48.530Z,45.47
2022-09-13T17:27:16.404Z,45.61
2022-09-13T17:29:44.336Z,45.54
2022-09-13T17:32:12.418Z,45.65
2022-09-13T17:34:40.294Z,45.69
2022-09-13T17:37:08.299Z,45.82
2022-09-13T17:39:38.116Z,45.91
2022-09-13T17:42:06.444Z,46.15
2022-09-13T17:44:34.344Z,46.36
2022-09-13T17:47:02.470Z,46.57
2022-09-13T17:49:30.362Z,46.61
2022-09-13T17:51:58.256Z,46.68
2022-09-13T17:54:27.036Z,46.95
2022-09-13T17:56:56.226Z,46.98
2022-09-13T17:59:24.029Z,47.08
2022-09-13T18:01:54.470Z,47.22
2022-09-13T18:04:24.242Z,47.36
2022-09-13T18:06:52.457Z,47.50
2022-09-13T18:09:20.915Z,47.59
2022-09-13T18:11:49.575Z,47.76
2022-09-13T18:14:20.099Z,47.88
2022-09-13T18:16:55.305Z,48.17
2022-09-13T18:19:44.355Z,48.25
2022-09-13T18:22:11.727Z,48.24
2022-09-13T18:24:39.956Z,48.41
2022-09-13T18:27:07.984Z,48.51
2022-09-13T18:29:37.531Z,48.58
2022-09-13T18:32:05.554Z,48.88
2022-09-13T18:34:33.433Z,48.89
2022-09-13T18:37:01.496Z,48.98
2022-09-13T18:39:29.390Z,49.30
2022-09-13T18:41:57.227Z,49.46
2022-09-13T18:44:25.408Z,49.37
2022-09-13T18:46:54.567Z,49.28
2022-09-13T18:49:22.517Z,49.44
2022-09-13T18:51:50.868Z,49.63
2022-09-13T18:54:19.714Z,49.76
2022-09-13T18:56:48.314Z,49.83
2022-09-13T18:59:16.940Z,49.96
2022-09-13T19:01:45.792Z,50.00
2022-09-13T19:04:18.394Z,49.99
2022-09-13T19:06:48.843Z,50.56
2022-09-13T19:09:17.742Z,50.67
2022-09-13T19:11:48.714Z,50.60
2022-09-13T19:14:20.198Z,50.62
2022-09-13T19:16:48.371Z,50.68
2022-09-13T19:19:17.868Z,50.58
2022-09-13T19:21:46.066Z,50.71
2022-09-13T19:24:18.347Z,50.81
2022-09-13T19:26:48.584Z,50.71
2022-09-13T19:29:18.542Z,50.83
2022-09-13T19:31:49.207Z,50.92
2022-09-13T19:34:21.390Z,50.85
2022-09-13T19:36:52.483Z,50.99
2022-09-13T19:39:23.809Z,51.07
2022-09-13T19:41:53.713Z,50.91
2022-09-13T19:44:22.871Z,51.07
2022-09-13T19:47:06.903Z,51.22
2022-09-13T19:49:40.878Z,51.37
2022-09-13T19:52:08.762Z,51.46
2022-09-13T19:54:39.803Z,51.49
2022-09-13T19:57:09.488Z,51.82
2022-09-13T19:59:37.368Z,51.90
2022-09-13T20:02:06.026Z,52.19
2022-09-13T20:04:34.233Z,51.95
2022-09-13T20:07:03.563Z,51.92
2022-09-13T20:09:31.819Z,51.85
2022-09-13T20:12:00.686Z,51.93
2022-09-13T20:14:28.871Z,51.79
2022-09-13T20:16:57.185Z,51.91
2022-09-13T20:19:44.830Z,52.17
2022-09-13T20:22:14.825Z,52.26
2022-09-13T20:24:44.070Z,51.91
2022-09-13T20:27:12.369Z,52.26
2022-09-13T20:29:40.383Z,52.10
2022-09-13T20:32:09.482Z,52.17
2022-09-13T20:34:37.792Z,52.25
2022-09-13T20:37:05.845Z,52.02
2022-09-13T20:39:35.414Z,52.14
2022-09-13T20:42:03.715Z,52.53
2022-09-13T20:44:31.540Z,52.14
2022-09-13T20:47:01.740Z,52.26
2022-09-13T20:49:30.284Z,52.27
2022-09-13T20:51:58.163Z,52.28
2022-09-13T20:54:26.305Z,52.21
2022-09-13T20:56:55.556Z,52.21
2022-09-13T20:59:23.443Z,52.22
2022-09-13T21:01:51.773Z,52.36
2022-09-13T21:04:19.847Z,52.20
2022-09-13T21:07:05.652Z,52.35
2022-09-13T21:09:33.769Z,52.17
2022-09-13T21:12:03.421Z,52.30
2022-09-13T21:14:33.957Z,52.35
2022-09-13T21:17:06.650Z,52.46
2022-09-13T21:19:34.790Z,52.53
2022-09-13T21:22:03.397Z,52.58
2022-09-13T21:24:31.500Z,52.64
2022-09-13T21:26:59.416Z,52.59
2022-09-13T21:29:29.053Z,52.68
2022-09-13T21:31:56.956Z,52.87
2022-09-13T21:34:27.239Z,52.79
2022-09-13T21:36:55.856Z,52.79
2022-09-13T21:39:24.299Z,52.92
2022-09-13T21:41:52.295Z,52.81
2022-09-13T21:44:20.417Z,53.08
2022-09-13T21:46:51.402Z,52.93
2022-09-13T21:49:19.337Z,52.88
2022-09-13T21:51:49.806Z,53.07
2022-09-13T21:54:19.577Z,53.08
2022-09-13T21:56:51.103Z,53.21
2022-09-13T21:59:20.878Z,53.24
2022-09-13T22:01:52.303Z,53.21
2022-09-13T22:04:22.788Z,53.35
2022-09-13T22:06:53.581Z,53.08
2022-09-13T22:09:23.393Z,52.92
2022-09-13T22:11:51.438Z,53.11
2022-09-13T22:14:21.992Z,52.99
2022-09-13T22:16:53.197Z,53.21
2022-09-13T22:19:23.529Z,53.49
2022-09-13T22:21:55.763Z,53.18
2022-09-13T22:24:25.655Z,53.36
2022-09-13T22:26:55.320Z,53.39
2022-09-13T22:29:24.106Z,53.29
2022-09-13T22:31:53.312Z,53.32
2022-09-13T22:34:23.995Z,53.60
2022-09-13T22:36:53.905Z,53.61
2022-09-13T22:39:22.107Z,53.69
2022-09-13T22:41:50.232Z,53.68
2022-09-13T22:44:18.089Z,53.87
2022-09-13T22:46:47.307Z,53.84
2022-09-13T22:49:18.806Z,53.94
2022-09-13T22:51:48.364Z,54.32
2022-09-13T22:54:18.014Z,54.13
2022-09-13T22:56:46.156Z,54.23
2022-09-13T22:59:15.945Z,54.23
2022-09-13T23:01:44.099Z,54.24
2022-09-13T23:04:12.732Z,54.41
2022-09-13T23:06:44.705Z,54.35
2022-09-13T23:09:15.204Z,54.45
2022-09-13T23:11:43.211Z,54.52
2022-09-13T23:14:13.131Z,54.52
2022-09-13T23:16:43.930Z,54.64
2022-09-13T23:19:13.576Z,54.78
2022-09-13T23:21:44.026Z,54.83
2022-09-13T23:24:14.189Z,54.89
2022-09-13T23:26:43.104Z,54.81
2022-09-13T23:29:13.790Z,54.78
2022-09-13T23:31:42.529Z,54.84
2022-09-13T23:34:12.626Z,54.68
2022-09-13T23:36:43.986Z,54.70
2022-09-13T23:39:16.343Z,54.95
2022-09-13T23:41:44.596Z,55.05
2022-09-13T23:44:12.803Z,55.04
2022-09-13T23:46:40.848Z,54.80
2022-09-13T23:49:08.792Z,54.97
2022-09-13T23:51:36.893Z,55.17
2022-09-13T23:54:06.318Z,54.98
2022-09-13T23:56:35.682Z,55.04
2022-09-13T23:59:05.121Z,54.99
